createdAt,value
2018-02-26T00:01:33.775Z,-4.40
2018-02-26T00:04:02.054Z,-4.30
2018-02-26T00:06:30.458Z,-4.30
2018-02-26T00:08:57.984Z,-4.30
2018-02-26T00:11:26.312Z,-4.20
2018-02-26T00:13:53.845Z,-4.20
2018-02-26T00:16:21.821Z,-4.30
2018-02-26T00:18:49.332Z,-4.30
2018-02-26T00:21:16.854Z,-4.30
2018-02-26T00:23:44.424Z,-4.40
2018-02-26T00:26:11.973Z,-4.40
2018-02-26T00:28:39.485Z,-4.50
2018-02-26T00:31:07.807Z,-4.60
2018-02-26T00:33:35.365Z,-4.60
2018-02-26T00:36:02.925Z,-4.60
2018-02-26T00:38:31.032Z,-4.70
2018-02-26T00:40:58.664Z,-4.70
2018-02-26T00:43:27.194Z,-4.70
2018-02-26T00:45:54.822Z,-4.80
2018-02-26T00:48:22.631Z,-4.80
2018-02-26T00:50:50.224Z,-4.80
2018-02-26T00:53:17.772Z,-4.90
2018-02-26T00:55:46.072Z,-5.00
2018-02-26T00:58:13.618Z,-5.00
2018-02-26T01:00:41.399Z,-5.00
2018-02-26T01:03:08.956Z,-5.00
2018-02-26T01:05:36.491Z,-5.10
2018-02-26T01:08:04.769Z,-5.20
2018-02-26T01:10:33.208Z,-5.20
2018-02-26T01:13:00.825Z,-5.30
2018-02-26T01:15:28.400Z,-5.20
2018-02-26T01:17:55.947Z,-5.20
2018-02-26T01:20:23.464Z,-5.30
2018-02-26T01:22:51.074Z,-5.40
2018-02-26T01:25:18.732Z,-5.40
2018-02-26T01:27:46.241Z,-5.40
2018-02-26T01:30:13.830Z,-5.40
2018-02-26T01:32:42.470Z,-5.50
2018-02-26T01:35:10.528Z,-5.50
2018-02-26T01:37:38.483Z,-5.50
2018-02-26T01:40:06.265Z,-5.50
2018-02-26T01:42:34.149Z,-5.30
2018-02-26T01:45:01.959Z,-5.30
2018-02-26T01:47:30.378Z,-5.10
2018-02-26T01:49:58.822Z,-5.10
2018-02-26T01:52:27.682Z,-4.90
2018-02-26T01:54:55.222Z,-4.90
2018-02-26T01:57:23.066Z,-4.90
2018-02-26T01:59:50.804Z,-4.80
2018-02-26T02:02:19.171Z,-4.80
2018-02-26T02:04:46.762Z,-4.90
2018-02-26T02:07:14.336Z,-4.90
2018-02-26T02:09:41.882Z,-4.80
2018-02-26T02:12:09.405Z,-4.90
2018-02-26T02:14:37.311Z,-4.90
2018-02-26T02:17:04.815Z,-4.90
2018-02-26T02:19:32.428Z,-5.00
2018-02-26T02:22:00.212Z,-5.00
2018-02-26T02:24:28.579Z,-5.10
2018-02-26T02:26:56.302Z,-5.10
2018-02-26T02:29:23.799Z,-5.10
2018-02-26T02:31:51.334Z,-5.00
2018-02-26T02:34:19.612Z,-5.00
2018-02-26T02:36:47.916Z,-5.00
2018-02-26T02:39:15.470Z,-5.00
2018-02-26T02:41:43.038Z,-5.00
2018-02-26T02:44:10.535Z,-5.00
2018-02-26T02:46:38.161Z,-5.00
2018-02-26T02:49:05.718Z,-5.10
2018-02-26T02:51:33.285Z,-5.20
2018-02-26T02:54:00.803Z,-5.30
2018-02-26T02:56:28.310Z,-5.30
2018-02-26T02:58:55.825Z,-5.30
2018-02-26T03:01:23.410Z,-5.20
2018-02-26T03:03:51.007Z,-5.10
2018-02-26T03:06:18.568Z,-5.10
2018-02-26T03:08:46.105Z,-5.00
2018-02-26T03:11:13.675Z,-5.00
2018-02-26T03:13:41.225Z,-5.10
2018-02-26T03:16:08.783Z,-5.10
2018-02-26T03:18:36.333Z,-5.20
2018-02-26T03:21:04.623Z,-5.40
2018-02-26T03:23:32.178Z,-5.40
2018-02-26T03:25:59.740Z,-5.50
2018-02-26T03:28:27.312Z,-5.50
2018-02-26T03:30:54.860Z,-5.60
2018-02-26T03:33:22.434Z,-5.60
2018-02-26T03:35:49.936Z,-5.70
2018-02-26T03:38:17.742Z,-5.70
2018-02-26T03:40:45.299Z,-5.80
2018-02-26T03:43:13.682Z,-5.80
2018-02-26T03:45:41.332Z,-5.90
2018-02-26T03:48:09.634Z,-6.00
2018-02-26T03:50:37.145Z,-6.00
2018-02-26T03:53:04.759Z,-6.00
2018-02-26T03:55:32.321Z,-6.00
2018-02-26T03:58:00.063Z,-6.00
2018-02-26T04:00:28.344Z,-6.10
2018-02-26T04:02:55.865Z,-6.10
2018-02-26T04:05:23.493Z,-6.10
2018-02-26T04:07:51.004Z,-6.10
2018-02-26T04:10:19.366Z,-6.20
2018-02-26T04:12:46.908Z,-6.20
2018-02-26T04:15:14.432Z,-6.10
2018-02-26T04:17:41.956Z,-6.20
2018-02-26T04:20:09.751Z,-6.20
2018-02-26T04:22:37.554Z,-6.20
2018-02-26T04:25:05.186Z,-6.20
2018-02-26T04:27:32.745Z,-6.20
2018-02-26T04:30:00.261Z,-6.30
2018-02-26T04:32:27.776Z,-6.30
2018-02-26T04:34:55.412Z,-6.30
2018-02-26T04:37:23.705Z,-6.30
2018-02-26T04:39:51.245Z,-6.30
2018-02-26T04:42:19.552Z,-6.30
2018-02-26T04:44:47.113Z,-6.30
2018-02-26T04:47:14.620Z,-6.40
2018-02-26T04:49:42.172Z,-6.40
2018-02-26T04:52:09.779Z,-6.40
2018-02-26T04:54:37.344Z,-6.50
2018-02-26T04:57:04.908Z,-6.50
2018-02-26T04:59:32.527Z,-6.50
2018-02-26T05:02:00.121Z,-6.50
2018-02-26T05:04:27.726Z,-6.50
2018-02-26T05:06:55.238Z,-6.50
2018-02-26T05:09:23.533Z,-6.50
2018-02-26T05:11:51.084Z,-6.50
2018-02-26T05:14:18.761Z,-6.50
2018-02-26T05:16:46.833Z,-6.50
2018-02-26T05:19:15.213Z,-6.50
2018-02-26T05:21:42.728Z,-6.50
2018-02-26T05:24:10.251Z,-6.50
2018-02-26T05:26:37.754Z,-6.50
2018-02-26T05:29:06.041Z,-6.50
2018-02-26T05:31:34.348Z,-6.60
2018-02-26T05:34:01.932Z,-6.60
2018-02-26T05:36:29.468Z,-6.60
2018-02-26T05:38:57.027Z,-6.50
2018-02-26T05:41:24.535Z,-6.50
2018-02-26T05:43:52.135Z,-6.50
2018-02-26T05:46:19.698Z,-6.50
2018-02-26T05:48:47.251Z,-6.50
2018-02-26T05:51:14.763Z,-6.60
2018-02-26T05:53:42.269Z,-6.60
2018-02-26T05:56:10.534Z,-6.60
2018-02-26T05:58:39.764Z,-6.50
2018-02-26T06:01:07.319Z,-6.50
2018-02-26T06:03:34.868Z,-6.50
2018-02-26T06:06:02.396Z,-6.50
2018-02-26T06:08:29.991Z,-6.40
2018-02-26T06:10:57.515Z,-6.40
2018-02-26T06:13:25.823Z,-6.30
2018-02-26T06:15:53.393Z,-6.30
2018-02-26T06:18:20.924Z,-6.30
2018-02-26T06:20:49.202Z,-6.20
2018-02-26T06:23:17.478Z,-6.20
2018-02-26T06:25:45.766Z,-6.10
2018-02-26T06:28:14.057Z,-6.00
2018-02-26T06:30:41.646Z,-6.00
2018-02-26T06:33:09.193Z,-6.00
2018-02-26T06:35:36.706Z,-6.00
2018-02-26T06:38:04.211Z,-6.00
2018-02-26T06:40:31.725Z,-5.90
2018-02-26T06:42:59.334Z,-6.00
2018-02-26T06:45:26.895Z,-5.90
2018-02-26T06:47:54.419Z,-5.80
2018-02-26T06:50:22.696Z,-5.80
2018-02-26T06:52:51.002Z,-5.80
2018-02-26T06:55:18.516Z,-5.80
2018-02-26T06:57:46.040Z,-5.70
2018-02-26T07:00:13.577Z,-5.60
2018-02-26T07:02:41.249Z,-5.70
2018-02-26T07:05:08.760Z,-5.60
2018-02-26T07:07:36.318Z,-5.50
2018-02-26T07:10:03.823Z,-5.60
2018-02-26T07:12:31.352Z,-5.50
2018-02-26T07:14:59.671Z,-5.50
2018-02-26T07:17:27.231Z,-5.40
2018-02-26T07:19:54.768Z,-5.30
2018-02-26T07:22:22.307Z,-5.20
2018-02-26T07:24:50.605Z,-5.10
2018-02-26T07:27:18.872Z,-4.90
2018-02-26T07:29:47.158Z,-4.80
2018-02-26T07:32:15.533Z,-4.80
2018-02-26T07:34:43.052Z,-4.80
2018-02-26T07:37:10.657Z,-4.60
2018-02-26T07:39:38.165Z,-4.40
2018-02-26T07:42:05.683Z,-4.40
2018-02-26T07:44:33.203Z,-4.60
2018-02-26T07:47:00.817Z,-4.60
2018-02-26T07:49:28.359Z,-4.50
2018-02-26T07:51:56.650Z,-4.50
2018-02-26T07:54:24.158Z,-4.50
2018-02-26T07:56:51.777Z,-4.40
2018-02-26T07:59:19.309Z,-4.60
2018-02-26T08:01:47.606Z,-4.40
2018-02-26T08:04:15.175Z,-4.40
2018-02-26T08:06:42.719Z,-4.50
2018-02-26T08:09:10.387Z,-4.50
2018-02-26T08:11:37.942Z,-4.60
2018-02-26T08:14:05.518Z,-4.70
2018-02-26T08:16:33.069Z,-4.70
2018-02-26T08:19:00.633Z,-4.60
2018-02-26T08:21:28.304Z,-4.60
2018-02-26T08:23:55.807Z,-4.60
2018-02-26T08:26:23.441Z,-4.80
2018-02-26T08:28:50.966Z,-4.50
2018-02-26T08:31:18.526Z,-4.50
2018-02-26T08:33:46.095Z,-4.40
2018-02-26T08:36:13.680Z,-4.30
2018-02-26T08:38:41.208Z,-4.10
2018-02-26T08:41:08.706Z,-3.90
2018-02-26T08:43:36.230Z,-4.10
2018-02-26T08:46:03.736Z,-4.20
2018-02-26T08:48:31.359Z,-4.10
2018-02-26T08:50:58.925Z,-4.00
2018-02-26T08:53:26.425Z,-4.10
2018-02-26T08:55:54.049Z,-4.10
2018-02-26T08:58:21.588Z,-4.10
2018-02-26T09:00:49.171Z,-4.10
2018-02-26T09:03:16.698Z,-4.00
2018-02-26T09:05:44.982Z,-3.80
2018-02-26T09:08:14.072Z,-3.30
2018-02-26T09:10:42.491Z,-2.80
2018-02-26T09:13:10.013Z,-2.80
2018-02-26T09:15:38.299Z,-3.20
2018-02-26T09:18:06.563Z,-3.30
2018-02-26T09:20:34.879Z,-3.40
2018-02-26T09:23:02.448Z,-3.40
2018-02-26T09:25:29.955Z,-3.00
2018-02-26T09:27:58.274Z,-2.70
2018-02-26T09:30:26.512Z,-2.30
2018-02-26T09:32:54.784Z,-2.30
2018-02-26T09:35:22.398Z,-2.30
2018-02-26T09:37:49.900Z,-2.90
2018-02-26T09:40:17.414Z,-2.90
2018-02-26T09:42:44.940Z,-3.10
2018-02-26T09:45:13.218Z,-2.40
2018-02-26T09:47:41.525Z,-2.00
2018-02-26T09:50:14.748Z,-2.00
2018-02-26T09:52:42.364Z,-1.40
2018-02-26T09:55:09.868Z,-0.90
2018-02-26T09:57:37.508Z,-0.30
2018-02-26T10:00:05.016Z,0.70
2018-02-26T10:02:33.320Z,-1.80
2018-02-26T10:05:00.965Z,-1.80
2018-02-26T10:07:29.255Z,0.20
2018-02-26T10:09:56.834Z,0.20
2018-02-26T10:12:24.359Z,0.40
2018-02-26T10:14:52.662Z,1.10
2018-02-26T10:17:20.180Z,1.00
2018-02-26T10:19:47.775Z,0.40
2018-02-26T10:22:15.307Z,-0.30
2018-02-26T10:24:42.907Z,-0.40
2018-02-26T10:27:10.415Z,0.30
2018-02-26T10:29:37.932Z,0.30
2018-02-26T10:32:05.478Z,1.00
2018-02-26T10:34:32.996Z,0.10
2018-02-26T10:37:00.524Z,1.00
2018-02-26T10:39:28.080Z,0.90
2018-02-26T10:41:55.586Z,1.80
2018-02-26T10:44:23.196Z,2.20
2018-02-26T10:46:50.762Z,1.60
2018-02-26T10:49:18.284Z,1.70
2018-02-26T10:51:46.595Z,0.90
2018-02-26T10:54:14.146Z,0.90
2018-02-26T10:56:41.642Z,2.10
2018-02-26T10:59:09.169Z,2.50
2018-02-26T11:01:36.709Z,2.40
2018-02-26T11:04:05.000Z,2.10
2018-02-26T11:06:32.563Z,2.10
2018-02-26T11:09:00.134Z,0.90
2018-02-26T11:11:27.628Z,0.90
2018-02-26T11:13:55.133Z,0.80
2018-02-26T11:16:22.650Z,0.30
2018-02-26T11:18:50.162Z,1.10
2018-02-26T11:21:17.728Z,1.20
2018-02-26T11:23:45.284Z,1.70
2018-02-26T11:26:13.735Z,0.90
2018-02-26T11:28:42.032Z,0.40
2018-02-26T11:31:09.542Z,0.30
2018-02-26T11:33:37.069Z,0.00
2018-02-26T11:36:05.140Z,0.10
2018-02-26T11:38:32.776Z,0.00
2018-02-26T11:41:01.082Z,-0.30
2018-02-26T11:43:28.736Z,-0.30
2018-02-26T11:45:56.243Z,-0.20
2018-02-26T11:48:23.770Z,-0.20
2018-02-26T11:50:53.335Z,-0.50
2018-02-26T11:53:21.644Z,-0.60
2018-02-26T11:55:49.193Z,-0.70
2018-02-26T11:58:16.760Z,-0.70
2018-02-26T12:00:44.364Z,-0.60
2018-02-26T12:03:11.876Z,-0.60
2018-02-26T12:05:39.466Z,-0.70
2018-02-26T12:08:06.987Z,-0.60
2018-02-26T12:10:35.271Z,-0.20
2018-02-26T12:13:02.794Z,-0.20
2018-02-26T12:15:30.306Z,0.10
2018-02-26T12:17:57.839Z,0.30
2018-02-26T12:20:25.445Z,0.40
2018-02-26T12:22:52.976Z,0.30
2018-02-26T12:25:20.549Z,0.10
2018-02-26T12:27:48.103Z,0.40
2018-02-26T12:30:15.680Z,0.10
2018-02-26T12:32:43.228Z,-0.30
2018-02-26T12:35:10.950Z,-0.50
2018-02-26T12:37:38.640Z,-0.40
2018-02-26T12:40:06.132Z,-0.50
2018-02-26T12:42:33.782Z,-0.80
2018-02-26T12:45:01.342Z,-1.00
2018-02-26T12:47:28.891Z,-0.90
2018-02-26T12:49:56.493Z,-0.90
2018-02-26T12:52:24.014Z,-0.90
2018-02-26T12:54:51.549Z,-0.50
2018-02-26T12:57:20.052Z,-0.90
2018-02-26T12:59:47.719Z,-1.00
2018-02-26T13:02:15.236Z,-0.80
2018-02-26T13:04:42.829Z,-0.90
2018-02-26T13:07:10.390Z,-0.80
2018-02-26T13:09:38.133Z,-0.90
2018-02-26T13:12:06.411Z,-0.20
2018-02-26T13:14:34.712Z,-0.10
2018-02-26T13:17:02.227Z,-0.20
2018-02-26T13:19:29.935Z,-0.10
2018-02-26T13:21:57.477Z,-0.40
2018-02-26T13:24:25.783Z,-0.30
2018-02-26T13:26:53.287Z,-0.30
2018-02-26T13:29:20.805Z,-0.30
2018-02-26T13:31:48.364Z,-1.10
2018-02-26T13:34:15.878Z,-1.20
2018-02-26T13:36:43.459Z,-1.70
2018-02-26T13:39:11.806Z,-1.70
2018-02-26T13:41:39.450Z,-1.70
2018-02-26T13:44:06.984Z,-1.70
2018-02-26T13:46:34.522Z,-1.50
2018-02-26T13:49:02.815Z,-1.30
2018-02-26T13:51:30.374Z,-1.30
2018-02-26T13:53:57.903Z,-0.90
2018-02-26T13:56:25.443Z,-1.10
2018-02-26T13:58:53.095Z,-1.30
2018-02-26T14:01:20.646Z,-1.40
2018-02-26T14:03:48.259Z,-1.40
2018-02-26T14:06:16.530Z,-1.70
2018-02-26T14:08:44.074Z,-1.60
2018-02-26T14:11:12.403Z,-1.60
2018-02-26T14:13:39.916Z,-1.70
2018-02-26T14:16:07.421Z,-1.60
2018-02-26T14:18:34.977Z,-1.60
2018-02-26T14:21:02.553Z,-1.60
2018-02-26T14:23:30.101Z,-1.60
2018-02-26T14:25:57.606Z,-1.70
2018-02-26T14:28:25.107Z,-1.60
2018-02-26T14:30:52.688Z,-1.70
2018-02-26T14:33:20.234Z,-1.50
2018-02-26T14:35:47.749Z,-1.30
2018-02-26T14:38:15.294Z,-1.10
2018-02-26T14:40:42.808Z,-0.50
2018-02-26T14:43:11.190Z,-0.80
2018-02-26T14:45:39.834Z,-0.80
2018-02-26T14:48:07.386Z,-0.90
2018-02-26T14:50:34.957Z,-1.00
2018-02-26T14:53:02.511Z,-1.50
2018-02-26T14:55:30.043Z,-1.70
2018-02-26T14:57:57.992Z,-1.90
2018-02-26T15:00:25.519Z,-2.00
2018-02-26T15:02:53.804Z,-2.10
2018-02-26T15:05:22.110Z,-2.00
2018-02-26T15:07:49.674Z,-2.00
2018-02-26T15:10:17.225Z,-2.00
2018-02-26T15:12:45.508Z,-1.90
2018-02-26T15:15:13.150Z,-2.00
2018-02-26T15:17:41.448Z,-1.50
2018-02-26T15:20:08.970Z,-1.50
2018-02-26T15:22:38.018Z,-1.20
2018-02-26T15:25:06.398Z,-1.10
2018-02-26T15:27:33.907Z,-1.10
2018-02-26T15:30:01.479Z,-1.30
2018-02-26T15:32:29.781Z,-1.40
2018-02-26T15:34:57.508Z,-1.40
2018-02-26T15:37:25.119Z,-1.50
2018-02-26T15:39:52.646Z,-1.60
2018-02-26T15:42:20.930Z,-1.90
2018-02-26T15:44:49.253Z,-2.00
2018-02-26T15:47:16.793Z,-2.00
2018-02-26T15:49:44.339Z,-1.80
2018-02-26T15:52:11.847Z,-1.80
2018-02-26T15:54:39.480Z,-1.80
2018-02-26T15:57:07.029Z,-1.90
2018-02-26T15:59:34.534Z,-2.00
2018-02-26T16:02:02.045Z,-2.00
2018-02-26T16:04:29.582Z,-2.00
2018-02-26T16:06:57.937Z,-2.00
2018-02-26T16:09:26.265Z,-2.10
2018-02-26T16:11:53.797Z,-2.10
2018-02-26T16:14:22.102Z,-2.10
2018-02-26T16:16:49.644Z,-2.10
2018-02-26T16:19:17.941Z,-2.00
2018-02-26T16:21:45.479Z,-2.00
2018-02-26T16:24:13.755Z,-2.10
2018-02-26T16:26:43.080Z,-2.10
2018-02-26T16:29:10.597Z,-2.10
2018-02-26T16:31:38.136Z,-2.10
2018-02-26T16:34:05.692Z,-2.20
2018-02-26T16:36:33.270Z,-2.20
2018-02-26T16:39:00.800Z,-2.20
2018-02-26T16:41:28.354Z,-2.20
2018-02-26T16:43:55.902Z,-2.20
2018-02-26T16:46:23.442Z,-2.20
2018-02-26T16:48:51.721Z,-2.40
2018-02-26T16:51:20.041Z,-2.50
2018-02-26T16:53:47.553Z,-2.60
2018-02-26T16:56:15.855Z,-2.70
2018-02-26T16:58:43.368Z,-2.80
2018-02-26T17:01:12.413Z,-2.90
2018-02-26T17:03:39.963Z,-2.90
2018-02-26T17:06:07.575Z,-2.70
2018-02-26T17:08:36.613Z,-2.70
2018-02-26T17:11:04.905Z,-2.70
2018-02-26T17:13:33.989Z,-2.70
2018-02-26T17:16:01.610Z,-2.70
2018-02-26T17:18:29.112Z,-2.70
2018-02-26T17:20:56.617Z,-2.70
2018-02-26T17:23:24.148Z,-2.60
2018-02-26T17:25:51.675Z,-2.70
2018-02-26T17:28:19.955Z,-2.60
2018-02-26T17:30:48.264Z,-2.70
2018-02-26T17:33:15.774Z,-2.70
2018-02-26T17:35:44.053Z,-2.60
2018-02-26T17:38:11.615Z,-2.70
2018-02-26T17:40:39.131Z,-2.70
2018-02-26T17:43:06.636Z,-2.80
2018-02-26T17:45:34.140Z,-2.80
2018-02-26T17:48:01.652Z,-2.90
2018-02-26T17:50:29.164Z,-2.90
2018-02-26T17:52:56.670Z,-3.00
2018-02-26T17:55:24.288Z,-3.00
2018-02-26T17:57:51.882Z,-3.10
2018-02-26T18:00:19.396Z,-3.10
2018-02-26T18:02:46.934Z,-3.20
2018-02-26T18:05:15.352Z,-3.20
2018-02-26T18:07:43.211Z,-3.30
2018-02-26T18:10:10.763Z,-3.30
2018-02-26T18:12:38.313Z,-3.20
2018-02-26T18:15:05.864Z,-3.20
2018-02-26T18:17:34.163Z,-3.20
2018-02-26T18:20:01.772Z,-3.20
2018-02-26T18:22:29.436Z,-3.20
2018-02-26T18:24:57.285Z,-3.20
2018-02-26T18:27:24.921Z,-3.20
2018-02-26T18:59:17.838Z,-3.90
2018-02-26T19:01:46.203Z,-4.00
2018-02-26T19:04:14.553Z,-4.10
2018-02-26T19:06:42.141Z,-4.10
2018-02-26T19:09:09.759Z,-4.10
2018-02-26T19:11:37.291Z,-4.20
2018-02-26T19:14:05.589Z,-4.20
2018-02-26T19:16:33.153Z,-4.20
2018-02-26T19:19:00.795Z,-4.30
2018-02-26T19:21:29.141Z,-4.40
2018-02-26T19:23:56.682Z,-4.40
2018-02-26T19:26:24.362Z,-4.40
2018-02-26T19:28:51.927Z,-4.40
2018-02-26T19:31:19.500Z,-4.50
2018-02-26T19:33:47.071Z,-4.50
2018-02-26T19:36:14.654Z,-4.50
2018-02-26T19:38:47.310Z,-4.50
2018-02-26T19:41:14.975Z,-4.60
2018-02-26T19:43:42.523Z,-4.60
2018-02-26T19:46:10.841Z,-4.70
2018-02-26T19:48:38.359Z,-4.70
2018-02-26T19:51:05.920Z,-4.70
2018-02-26T19:53:33.446Z,-4.70
2018-02-26T19:56:01.126Z,-4.70
2018-02-26T19:58:28.637Z,-4.70
2018-02-26T20:00:56.204Z,-4.80
2018-02-26T20:03:23.735Z,-4.80
2018-02-26T20:05:52.093Z,-4.80
2018-02-26T20:08:20.125Z,-4.80
2018-02-26T20:10:47.673Z,-4.80
2018-02-26T20:13:15.201Z,-4.90
2018-02-26T20:15:43.549Z,-4.90
2018-02-26T20:18:11.080Z,-4.80
2018-02-26T20:20:38.652Z,-4.90
2018-02-26T20:23:06.230Z,-4.90
2018-02-26T20:25:34.194Z,-4.90
2018-02-26T20:28:02.566Z,-4.90
2018-02-26T20:30:31.889Z,-5.00
2018-02-26T20:33:00.653Z,-5.00
2018-02-26T20:35:28.184Z,-5.10
2018-02-26T20:37:55.777Z,-5.10
2018-02-26T20:40:23.350Z,-5.10
2018-02-26T20:42:50.990Z,-5.20
2018-02-26T20:45:18.504Z,-5.10
2018-02-26T20:47:46.785Z,-5.20
2018-02-26T20:50:15.083Z,-5.20
2018-02-26T20:52:43.484Z,-5.30
2018-02-26T20:55:11.006Z,-5.30
2018-02-26T20:57:39.313Z,-5.30
2018-02-26T21:00:06.896Z,-5.30
2018-02-26T21:02:34.458Z,-5.30
2018-02-26T21:05:02.054Z,-5.30
2018-02-26T21:07:29.596Z,-5.40
2018-02-26T21:09:57.127Z,-5.40
2018-02-26T21:12:24.702Z,-5.40
2018-02-26T21:14:52.247Z,-5.40
2018-02-26T21:17:19.874Z,-5.50
2018-02-26T21:19:48.189Z,-5.50
2018-02-26T21:22:15.725Z,-5.50
2018-02-26T21:24:43.292Z,-5.60
2018-02-26T21:27:11.401Z,-5.50
2018-02-26T21:29:39.366Z,-5.60
2018-02-26T21:32:08.748Z,-5.60
2018-02-26T21:34:36.928Z,-5.60
2018-02-26T21:37:05.325Z,-5.70
2018-02-26T21:39:34.676Z,-5.80
2018-02-26T21:42:02.276Z,-5.80
2018-02-26T21:44:29.838Z,-5.70
2018-02-26T21:46:57.386Z,-5.80
2018-02-26T21:49:24.915Z,-5.80
2018-02-26T21:51:53.228Z,-6.00
2018-02-26T21:54:20.883Z,-6.00
2018-02-26T21:56:48.534Z,-6.10
2018-02-26T21:59:16.397Z,-6.10
2018-02-26T22:01:45.110Z,-6.10
2018-02-26T22:04:12.861Z,-6.10
2018-02-26T22:06:40.388Z,-6.00
2018-02-26T22:09:09.067Z,-6.00
2018-02-26T22:11:36.592Z,-6.10
2018-02-26T22:14:04.092Z,-6.10
2018-02-26T22:16:31.608Z,-6.30
2018-02-26T22:18:59.126Z,-6.30
2018-02-26T22:21:27.859Z,-6.30
2018-02-26T22:23:55.891Z,-6.30
2018-02-26T22:26:23.427Z,-6.40
2018-02-26T22:28:50.944Z,-6.40
2018-02-26T22:31:18.880Z,-6.40
2018-02-26T22:33:47.180Z,-6.50
2018-02-26T22:36:14.826Z,-6.50
2018-02-26T22:38:43.130Z,-6.50
2018-02-26T22:41:10.708Z,-6.50
2018-02-26T22:43:38.238Z,-6.60
2018-02-26T22:46:05.772Z,-6.60
2018-02-26T22:48:34.084Z,-6.60
2018-02-26T22:51:01.659Z,-6.70
2018-02-26T22:53:29.166Z,-6.70
2018-02-26T22:55:57.477Z,-6.80
2018-02-26T22:58:25.047Z,-6.80
2018-02-26T23:00:52.563Z,-6.70
2018-02-26T23:03:20.852Z,-6.80
2018-02-26T23:05:49.142Z,-6.70
2018-02-26T23:08:16.671Z,-6.80
2018-02-26T23:10:44.184Z,-6.90
2018-02-26T23:13:11.691Z,-6.90
2018-02-26T23:15:40.030Z,-6.90
2018-02-26T23:18:07.904Z,-7.00
2018-02-26T23:20:36.256Z,-7.00
2018-02-26T23:23:03.820Z,-7.00
2018-02-26T23:25:31.333Z,-7.10
2018-02-26T23:27:58.852Z,-7.00
2018-02-26T23:30:26.495Z,-7.00
2018-02-26T23:32:54.032Z,-6.90
2018-02-26T23:35:22.435Z,-7.00
2018-02-26T23:37:49.953Z,-7.00
2018-02-26T23:40:17.566Z,-6.90
2018-02-26T23:42:45.072Z,-6.90
2018-02-26T23:45:12.668Z,-6.90
2018-02-26T23:47:40.286Z,-6.90
2018-02-26T23:50:07.791Z,-7.00
2018-02-26T23:52:35.351Z,-7.10
2018-02-26T23:55:02.906Z,-7.10
2018-02-26T23:57:30.424Z,-7.10
2018-02-26T23:59:57.935Z,-7.00
